Kingston, Arkansas
Current Conditions -  °F | °C
As of 9:53 AM on Friday 21 Nov 2014 (Local Time) from KHRO Reporting Station
Overcast Overcast  
Wind Chill: 35°   Ceiling: 1100
Heat Index: 42°   Visibility: 9mi
Dew Point: 37°   Wind: 13mph
Humidity: 82%   Direction: 140°SE
Pressure: 30.27"   Gusts: NA
Location:  36.05°N, 93.52°W
Report Text: KHRO 211553Z AUTO 14011KT 9SM OVC011 06/03 A3027 RMK AO2 CIG 009V014 SLP257 T00560028
Loading
Personal Weather Stations






























Interactive Weather Map New forecast layout! Learn more

10-Day Weather Forecast

Advertisements
Track Severe Weather on mobile